Airfield :
LOGIN :

Register | Disclaimer

   EN    FR    IT 

 










Legend :    VFR   Marginal VFR   IFR   Intensive IFR   Very Intensive IFR
Visi :
Ceiling :
>= 8 km
>= 3000ft
5 to 8 km
1000 to 3000 ft
1500m to 5 km
500 to 1000 ft
800 to 1500m
200 to 500 ft
< 800m
< 200 ft
Symbols :   Thunderstorms  Fog  Heavy snow  Heavy precipitations  Wind > 20 kt
SIGMETs :     Misc.  Thunderstorms  Icing  Turbulence  Mountain Waves  Volcanic Ashes







- Airport Elevation : -11 ft
- IATA code : AMS


EHAM - Amsterdam Schiphol

CURRENT METAR :
  • 250925Z 32021G35KT 290V350 9999 SCT027 08/03 Q1023 TEMPO 7000 -SHRA FEW022CB

EXPIRED METARs :
  • 250855Z 33021G31KT 300V360 9999 FEW027 09/03 Q1023 NOSIG
  • 250825Z 33020G30KT 290V010 9999 SCT023 07/03 Q1022 NOSIG
  • 250755Z 32022KT 290V350 9999 SCT025 07/04 Q1022 NOSIG
  • 250725Z 32020KT 290V350 9999 FEW020TCU 07/04 Q1021 NOSIG
  • 250655Z 32017G27KT 290V360 9999 -SHRA FEW018CB SCT023 06/02 Q1021 TEMPO 6000
  • 250625Z 30021G31KT 270V330 9999 -SHRA FEW025CB BKN045 07/03 Q1020 TEMPO 31022G37KT 6000 -SHRA FEW020CB

TAF TAF EHAM
Valid from the 25 at 06:00 until the 26 at 12:00 UTC


250458Z 2506/2612 31018G28KT 9999 BKN025
TEMPO 2506/2510 6000 SHRA SCT020CB BKN025
BECMG 2507/2509 33024G34KT
BECMG 2514/2517 35018G28KT
BECMG 2517/2520 33010KT
BECMG 2606/2609 30012G22KT
No reported NOTAMs for that airfield.



MET'MAP, your aeronautical weather chart ! - Copyright ORBIFLY December 2007 - Disclaimer

ORBIFLY MET'MAP TEAM :

Programming & Development : Alexandra Zaïnal
Concept & Development : Baudouin d'Aumeries
Co-Development & Prog : Marc-Olivier Méhu
Technical & hardware support : Manuel Goepfert

Contact : metmap@orbifly.com




SOURCES & CREDITS :

   NOAA